Time;durP1;ratioP1;P1;durP2;ratioP2;P2;SDS_P1;SDS_P2;PMS_P1;PMS_P2;Temp;Humidity;BMP_temperature;BMP_pressure;BME280_temperature;BME280_humidity;BME280_pressure;Samples;Min_cycle;Max_cycle;Signal;HPM_P1;HPM_P2
2023/10/10 05:23:48;;;;;;;1999.90;999.90;;;;;;;;;;5033517;28;20037;-71
2023/10/10 05:26:15;;;;;;;1999.90;999.90;;;;;;;;;;5027401;28;20137;-72
2023/10/10 05:28:45;;;;;;;1999.90;999.90;;;;;;;;;;5021719;28;20414;-72
2023/10/10 05:31:11;;;;;;;1999.90;999.90;;;;;;;;;;5055867;28;20037;-72
2023/10/10 05:33:38;;;;;;;1999.90;999.90;;;;;;;;;;5031372;28;20033;-71
2023/10/10 05:36:07;;;;;;;1999.90;999.90;;;;;;;;;;5032382;28;20021;-72
2023/10/10 05:38:42;;;;;;;1999.90;999.90;;;;;;;;;;5032650;28;20041;-73
2023/10/10 05:41:10;;;;;;;1999.90;999.90;;;;;;;;;;5032882;28;20067;-72
2023/10/10 05:43:39;;;;;;;1999.90;999.90;;;;;;;;;;5032587;28;20029;-74
2023/10/10 06:59:32;;;;;;;1999.90;999.90;;;;;;;;;;5067489;28;20952;-71
2023/10/10 07:02:13;;;;;;;1999.90;999.90;;;;;;;;;;5056238;28;20035;-71
2023/10/10 07:04:39;;;;;;;1999.90;999.90;;;;;;;;;;5057700;28;20013;-72
2023/10/10 07:07:07;;;;;;;1999.90;999.90;;;;;;;;;;5058022;28;20025;-70
2023/10/10 07:09:36;;;;;;;1999.90;999.90;;;;;;;;;;5059271;28;20025;-72
2023/10/10 07:12:13;;;;;;;1999.90;999.90;;;;;;;;;;5059004;28;20028;-72
2023/10/10 07:14:43;;;;;;;1999.90;999.90;;;;;;;;;;5067939;28;20024;-68
2023/10/10 07:17:12;;;;;;;1999.90;999.90;;;;;;;;;;5067800;28;20031;-71
2023/10/10 07:20:54;;;;;;;1999.90;999.90;;;;;;;;;;5067302;28;20060;-71
2023/10/10 07:22:25;;;;;;;1999.90;999.90;;;;;;;;;;5054679;28;20039;-70
2023/10/10 07:25:07;;;;;;;1999.90;999.90;;;;;;;;;;5047569;28;20028;-71
2023/10/10 07:27:35;;;;;;;1999.90;999.90;;;;;;;;;;5046083;28;20119;-70
2023/10/10 07:30:17;;;;;;;1999.90;999.90;;;;;;;;;;5047653;28;20033;-69
2023/10/10 07:32:50;;;;;;;1999.90;999.90;;;;;;;;;;5047514;28;20027;-70
2023/10/10 07:35:16;;;;;;;1999.90;999.90;;;;;;;;;;5047459;28;20027;-70
2023/10/10 07:37:45;;;;;;;1999.90;999.90;;;;;;;;;;5047317;28;20116;-71
2023/10/10 07:42:41;;;;;;;1999.90;999.90;;;;;;;;;;5047321;28;20041;-71
2023/10/10 07:45:13;;;;;;;1999.90;999.90;;;;;;;;;;5046684;28;20033;-70
2023/10/10 07:50:46;;;;;;;1999.90;999.90;;;;;;;;;;5024074;28;20030;-71
2023/10/10 07:53:12;;;;;;;1999.90;999.90;;;;;;;;;;5024359;28;20034;-71
2023/10/10 07:55:59;;;;;;;1999.90;999.90;;;;;;;;;;5023913;28;20037;-70
2023/10/10 07:58:29;;;;;;;1999.90;999.90;;;;;;;;;;5032269;28;20060;-72
2023/10/10 08:01:09;;;;;;;1999.90;999.90;;;;;;;;;;5043588;28;20080;-70
2023/10/10 08:03:36;;;;;;;1999.90;999.90;;;;;;;;;;5043519;28;20208;-65
2023/10/10 08:06:02;;;;;;;1999.90;999.90;;;;;;;;;;5043582;28;20025;-69
2023/10/10 08:08:30;;;;;;;1999.90;999.90;;;;;;;;;;5043353;28;20041;-70
2023/10/10 08:11:05;;;;;;;1999.90;999.90;;;;;;;;;;5029937;28;20500;-69
2023/10/10 08:13:32;;;;;;;1999.90;999.90;;;;;;;;;;5029246;28;20633;-66
2023/10/10 08:16:02;;;;;;;1999.90;999.90;;;;;;;;;;5030580;28;20053;-73
2023/10/10 08:18:52;;;;;;;1999.90;999.90;;;;;;;;;;5030391;28;20030;-70
2023/10/10 08:21:15;;;;;;;1999.90;999.90;;;;;;;;;;5030453;28;20424;-69
2023/10/10 08:23:49;;;;;;;1999.90;999.90;;;;;;;;;;5030509;28;20066;-69
2023/10/10 08:26:19;;;;;;;1999.90;999.90;;;;;;;;;;5027499;28;20022;-71
2023/10/10 08:28:46;;;;;;;1999.90;999.90;;;;;;;;;;5012932;28;20040;-70
2023/10/10 08:31:13;;;;;;;1999.90;999.90;;;;;;;;;;5013273;28;20081;-71
2023/10/10 08:33:40;;;;;;;1999.90;999.90;;;;;;;;;;5012615;28;20544;-69
2023/10/10 08:36:06;;;;;;;1999.90;999.90;;;;;;;;;;5012098;28;20029;-71
2023/10/10 08:38:32;;;;;;;1999.90;999.90;;;;;;;;;;5013101;28;20454;-69
2023/10/10 08:41:01;;;;;;;1999.90;999.90;;;;;;;;;;5012990;28;20052;-71
2023/10/10 08:43:31;;;;;;;1999.90;999.90;;;;;;;;;;5012864;28;20048;-66
2023/10/10 08:45:59;;;;;;;1999.90;999.90;;;;;;;;;;5012919;28;20033;-76
2023/10/10 08:48:27;;;;;;;1999.90;999.90;;;;;;;;;;5029545;28;20037;-68
2023/10/10 08:51:03;;;;;;;1999.90;999.90;;;;;;;;;;5038214;28;20026;-69
2023/10/10 08:53:29;;;;;;;1999.90;999.90;;;;;;;;;;5041154;28;20469;-71
2023/10/10 08:55:59;;;;;;;1999.90;999.90;;;;;;;;;;5043291;28;20037;-70
2023/10/10 08:58:25;;;;;;;1999.90;999.90;;;;;;;;;;5043078;28;20045;-77
2023/10/10 09:00:51;;;;;;;1999.90;999.90;;;;;;;;;;5042223;28;20504;-76
2023/10/10 09:03:17;;;;;;;1999.90;999.90;;;;;;;;;;5041008;28;20028;-71
2023/10/10 09:05:44;;;;;;;1999.90;999.90;;;;;;;;;;5042286;28;20023;-71
2023/10/10 09:08:16;;;;;;;1999.90;999.90;;;;;;;;;;5017745;28;20163;-70
2023/10/10 09:10:53;;;;;;;1999.90;999.90;;;;;;;;;;5013618;28;20026;-72
2023/10/10 09:13:19;;;;;;;1999.90;999.90;;;;;;;;;;5025063;28;20037;-70
2023/10/10 09:15:55;;;;;;;1999.90;999.90;;;;;;;;;;5021207;28;20025;-71
2023/10/10 09:18:22;;;;;;;1999.90;999.90;;;;;;;;;;5021434;28;20041;-69
2023/10/10 09:20:49;;;;;;;1999.90;999.90;;;;;;;;;;5020889;28;20018;-70
2023/10/10 09:23:21;;;;;;;1999.90;999.90;;;;;;;;;;5021212;28;20381;-72
2023/10/10 09:26:09;;;;;;;1999.90;999.90;;;;;;;;;;5021446;28;20478;-71
2023/10/10 09:28:45;;;;;;;1999.90;999.90;;;;;;;;;;5022438;28;20444;-70
2023/10/10 09:31:26;;;;;;;1999.90;999.90;;;;;;;;;;5022238;28;20024;-72
2023/10/10 09:33:54;;;;;;;1999.90;999.90;;;;;;;;;;5021097;28;20381;-72
2023/10/10 09:36:26;;;;;;;1999.90;999.90;;;;;;;;;;5020555;28;20026;-72
2023/10/10 09:42:00;;;;;;;1999.90;999.90;;;;;;;;;;5022673;28;20056;-71
2023/10/10 09:47:17;;;;;;;1999.90;999.90;;;;;;;;;;5021353;28;20025;-71
2023/10/10 09:49:45;;;;;;;1999.90;999.90;;;;;;;;;;5021999;28;20033;-71
2023/10/10 09:55:38;;;;;;;1999.90;999.90;;;;;;;;;;5022325;28;20521;-69
2023/10/10 10:09:38;;;;;;;1999.90;999.90;;;;;;;;;;5011838;28;20540;-74
2023/10/10 10:12:19;;;;;;;1999.90;999.90;;;;;;;;;;5013195;28;20441;-74
2023/10/10 10:14:54;;;;;;;1999.90;999.90;;;;;;;;;;5022624;28;20022;-71
2023/10/10 10:17:45;;;;;;;1999.90;999.90;;;;;;;;;;5020569;28;20026;-70
2023/10/10 10:20:21;;;;;;;1999.90;999.90;;;;;;;;;;5022081;28;20105;-72
2023/10/10 10:22:53;;;;;;;1999.90;999.90;;;;;;;;;;5023092;28;20025;-72
2023/10/10 10:25:21;;;;;;;1999.90;999.90;;;;;;;;;;5020491;28;20025;-72
2023/10/10 10:27:51;;;;;;;1999.90;999.90;;;;;;;;;;5019097;28;20037;-70
2023/10/10 10:32:47;;;;;;;1999.90;999.90;;;;;;;;;;5010746;28;20801;-71
2023/10/10 10:35:36;;;;;;;1999.90;999.90;;;;;;;;;;5019200;28;20061;-70
2023/10/10 10:38:06;;;;;;;1999.90;999.90;;;;;;;;;;5019884;28;20069;-73
2023/10/10 10:43:31;;;;;;;1999.90;999.90;;;;;;;;;;5011336;28;20824;-69
2023/10/10 10:46:12;;;;;;;1999.90;999.90;;;;;;;;;;5019621;28;20049;-71
2023/10/10 10:48:40;;;;;;;1999.90;999.90;;;;;;;;;;5019216;28;20022;-72
2023/10/10 10:51:25;;;;;;;1999.90;999.90;;;;;;;;;;5021073;28;20021;-71
2023/10/10 10:54:02;;;;;;;1999.90;999.90;;;;;;;;;;5020815;28;20022;-73
2023/10/10 10:59:21;;;;;;;1999.90;999.90;;;;;;;;;;5019436;28;20141;-74
2023/10/10 11:01:57;;;;;;;1999.90;999.90;;;;;;;;;;5020135;28;20029;-72
2023/10/10 11:04:45;;;;;;;1999.90;999.90;;;;;;;;;;5018789;28;20091;-72
2023/10/10 11:07:16;;;;;;;1999.90;999.90;;;;;;;;;;5028721;28;20132;-70
2023/10/10 11:09:52;;;;;;;1999.90;999.90;;;;;;;;;;5025989;28;20037;-71
2023/10/10 11:12:22;;;;;;;1999.90;999.90;;;;;;;;;;5030835;28;20032;-71
2023/10/10 11:14:49;;;;;;;1999.90;999.90;;;;;;;;;;5030669;28;20056;-70
2023/10/10 11:17:18;;;;;;;1999.90;999.90;;;;;;;;;;5028967;28;20452;-72
2023/10/10 11:19:46;;;;;;;1999.90;999.90;;;;;;;;;;5020309;28;20062;-72
2023/10/10 11:22:38;;;;;;;1999.90;999.90;;;;;;;;;;5015789;28;20014;-71
2023/10/10 11:25:04;;;;;;;1999.90;999.90;;;;;;;;;;5027162;28;20048;-71
2023/10/10 11:27:33;;;;;;;1999.90;999.90;;;;;;;;;;5029575;28;20091;-69
2023/10/10 11:30:03;;;;;;;1999.90;999.90;;;;;;;;;;5036286;28;20124;-70
2023/10/10 11:32:45;;;;;;;1999.90;999.90;;;;;;;;;;5035195;28;20021;-69
2023/10/10 11:35:22;;;;;;;1999.90;999.90;;;;;;;;;;5035764;28;20469;-69
2023/10/10 11:37:49;;;;;;;1999.90;999.90;;;;;;;;;;5037103;28;20052;-69
2023/10/10 11:43:04;;;;;;;1999.90;999.90;;;;;;;;;;5029134;28;20539;-69
2023/10/10 11:45:30;;;;;;;1999.90;999.90;;;;;;;;;;5031640;28;20090;-70
2023/10/10 11:50:59;;;;;;;1999.90;999.90;;;;;;;;;;5011199;28;20095;-74
2023/10/10 11:53:29;;;;;;;1999.90;999.90;;;;;;;;;;5000578;28;20030;-72
2023/10/10 11:56:17;;;;;;;1999.90;999.90;;;;;;;;;;5011858;28;20560;-71
2023/10/10 11:58:49;;;;;;;1999.90;999.90;;;;;;;;;;4996464;28;20062;-70
2023/10/10 12:01:36;;;;;;;;;;;;;;;;;;4991890;28;20034;-71
2023/10/10 12:04:20;;;;;;;1999.90;999.90;;;;;;;;;;5007683;28;20312;-71
2023/10/10 12:06:46;;;;;;;1999.90;999.90;;;;;;;;;;5001483;28;20084;-71
2023/10/10 12:09:18;;;;;;;1999.90;999.90;;;;;;;;;;5001430;28;20122;-73
2023/10/10 12:11:44;;;;;;;1999.90;999.90;;;;;;;;;;5005110;28;20098;-72
2023/10/10 12:14:18;;;;;;;1999.90;999.90;;;;;;;;;;5001686;28;20065;-72
2023/10/10 12:16:50;;;;;;;1999.90;999.90;;;;;;;;;;4996355;28;20644;-71
2023/10/10 12:19:18;;;;;;;1999.90;999.90;;;;;;;;;;4995161;28;20043;-72
2023/10/10 12:22:07;;;;;;;1999.90;999.90;;;;;;;;;;5001566;28;20038;-73
2023/10/10 12:24:33;;;;;;;1999.90;999.90;;;;;;;;;;4983412;28;20053;-74
2023/10/10 12:26:59;;;;;;;1999.90;999.90;;;;;;;;;;5013255;28;20045;-74
2023/10/10 12:29:41;;;;;;;1999.90;999.90;;;;;;;;;;5023888;28;20032;-73
2023/10/10 12:38:10;;;;;;;1999.90;999.90;;;;;;;;;;5005807;28;20039;-73
2023/10/10 12:40:36;;;;;;;1999.90;999.90;;;;;;;;;;4991205;28;20034;-73
2023/10/10 12:46:59;;;;;;;1999.90;999.90;;;;;;;;;;4944944;29;20451;-71
2023/10/10 12:49:36;;;;;;;1999.90;999.90;;;;;;;;;;4891772;29;20500;-72
2023/10/10 12:52:11;;;;;;;1999.90;999.90;;;;;;;;;;4889783;29;20048;-71
2023/10/10 12:54:37;;;;;;;1999.90;999.90;;;;;;;;;;4884219;29;20037;-74
2023/10/10 12:57:06;;;;;;;1999.90;999.90;;;;;;;;;;4884775;29;20060;-74
2023/10/10 12:59:46;;;;;;;1999.90;999.90;;;;;;;;;;4895006;29;20441;-73
2023/10/10 13:02:15;;;;;;;1999.90;999.90;;;;;;;;;;4892379;29;20044;-73
2023/10/10 13:04:45;;;;;;;1999.90;999.90;;;;;;;;;;4886290;29;20120;-74
2023/10/10 13:07:12;;;;;;;1999.90;999.90;;;;;;;;;;4892335;29;20036;-72
2023/10/10 13:09:43;;;;;;;1999.90;999.90;;;;;;;;;;4882158;29;20477;-73
2023/10/10 13:12:18;;;;;;;1999.90;999.90;;;;;;;;;;4901832;29;20177;-73
2023/10/10 13:14:50;;;;;;;1999.90;999.90;;;;;;;;;;4913506;29;20602;-73
2023/10/10 13:20:11;;;;;;;1999.90;999.90;;;;;;;;;;4959908;28;19964;-74
2023/10/10 13:22:37;;;;;;;1999.90;999.90;;;;;;;;;;4984718;28;20038;-75
2023/10/10 13:25:09;;;;;;;1999.90;999.90;;;;;;;;;;5028684;28;20042;-74
2023/10/10 13:27:35;;;;;;;1999.90;999.90;;;;;;;;;;5029362;28;20061;-74
2023/10/10 13:30:01;;;;;;;1999.90;999.90;;;;;;;;;;5029891;28;20056;-73
2023/10/10 13:32:28;;;;;;;1999.90;999.90;;;;;;;;;;5030478;28;20033;-73
2023/10/10 13:34:54;;;;;;;1999.90;999.90;;;;;;;;;;5013442;28;20029;-73
2023/10/10 13:37:22;;;;;;;1999.90;999.90;;;;;;;;;;5029553;28;20270;-72
2023/10/10 13:39:48;;;;;;;1999.90;999.90;;;;;;;;;;5029390;28;20461;-72
2023/10/10 13:42:14;;;;;;;1999.90;999.90;;;;;;;;;;5013507;28;20196;-72
2023/10/10 13:44:41;;;;;;;1999.90;999.90;;;;;;;;;;5013936;28;20554;-73
2023/10/10 13:47:08;;;;;;;1999.90;999.90;;;;;;;;;;5030093;28;20152;-73
2023/10/10 13:49:44;;;;;;;1999.90;999.90;;;;;;;;;;5012932;28;20037;-72
2023/10/10 13:52:11;;;;;;;1999.90;999.90;;;;;;;;;;5013224;28;20136;-75
2023/10/10 13:54:37;;;;;;;1999.90;999.90;;;;;;;;;;5029068;28;20029;-74
2023/10/10 13:57:03;;;;;;;1999.90;999.90;;;;;;;;;;5003164;28;20038;-73
2023/10/10 13:59:29;;;;;;;1999.90;999.90;;;;;;;;;;4991843;28;20057;-73
2023/10/10 14:01:58;;;;;;;1999.90;999.90;;;;;;;;;;4992741;28;20104;-73
2023/10/10 14:04:26;;;;;;;1999.90;999.90;;;;;;;;;;4991793;28;20497;-73
2023/10/10 14:06:54;;;;;;;1999.90;999.90;;;;;;;;;;4991323;28;20027;-73
2023/10/10 14:09:24;;;;;;;1999.90;999.90;;;;;;;;;;4991878;28;20064;-72
2023/10/10 14:12:01;;;;;;;1999.90;999.90;;;;;;;;;;4991590;28;20050;-73
2023/10/10 14:14:27;;;;;;;1999.90;999.90;;;;;;;;;;4990396;28;20045;-73
2023/10/10 14:16:54;;;;;;;1999.90;999.90;;;;;;;;;;4991637;28;20374;-73
2023/10/10 14:19:23;;;;;;;1999.90;999.90;;;;;;;;;;4991657;28;20057;-71
2023/10/10 14:21:52;;;;;;;1999.90;999.90;;;;;;;;;;4990434;28;20026;-73
2023/10/10 14:24:19;;;;;;;1999.90;999.90;;;;;;;;;;4991799;28;20026;-73
2023/10/10 14:26:45;;;;;;;1999.90;999.90;;;;;;;;;;4991444;28;20111;-74
2023/10/10 14:29:14;;;;;;;1999.90;999.90;;;;;;;;;;4992380;28;20038;-74
2023/10/10 14:31:44;;;;;;;1999.90;999.90;;;;;;;;;;4996791;28;20034;-72
2023/10/10 14:34:24;;;;;;;1999.90;999.90;;;;;;;;;;5006616;28;20465;-74
2023/10/10 14:36:51;;;;;;;1999.90;999.90;;;;;;;;;;5012221;28;20036;-73
2023/10/10 14:39:31;;;;;;;1999.90;999.90;;;;;;;;;;5012027;28;20168;-73
2023/10/10 14:42:01;;;;;;;1999.90;999.90;;;;;;;;;;5011966;28;20022;-73
2023/10/10 14:44:28;;;;;;;1999.90;999.90;;;;;;;;;;5011456;28;20187;-75
2023/10/10 14:47:03;;;;;;;1999.90;999.90;;;;;;;;;;5011466;28;20385;-74
2023/10/10 14:49:30;;;;;;;1999.90;999.90;;;;;;;;;;5011119;28;20030;-71
2023/10/10 14:51:57;;;;;;;1999.90;999.90;;;;;;;;;;5010987;28;20026;-73
2023/10/10 14:54:23;;;;;;;1999.90;999.90;;;;;;;;;;5010958;28;20033;-72
2023/10/10 14:56:50;;;;;;;1999.90;999.90;;;;;;;;;;5011365;28;20018;-73
2023/10/10 14:59:31;;;;;;;1999.90;999.90;;;;;;;;;;5028877;28;20046;-73
2023/10/10 15:01:59;;;;;;;1999.90;999.90;;;;;;;;;;5030612;28;20774;-74
2023/10/10 15:04:28;;;;;;;1999.90;999.90;;;;;;;;;;5030653;28;20025;-72
2023/10/10 15:06:54;;;;;;;1999.90;999.90;;;;;;;;;;5030520;28;20018;-72
2023/10/10 15:09:23;;;;;;;1999.90;999.90;;;;;;;;;;5030859;28;20029;-73
2023/10/10 15:11:51;;;;;;;1999.90;999.90;;;;;;;;;;5029442;28;20029;-72
2023/10/10 15:14:21;;;;;;;1999.90;999.90;;;;;;;;;;5031080;28;20030;-71
2023/10/10 15:16:48;;;;;;;1999.90;999.90;;;;;;;;;;5030134;28;20030;-72
2023/10/10 15:19:14;;;;;;;1999.90;999.90;;;;;;;;;;5030997;28;20040;-72
2023/10/10 15:21:40;;;;;;;1999.90;999.90;;;;;;;;;;5034656;28;20159;-71
2023/10/10 15:24:14;;;;;;;1999.90;999.90;;;;;;;;;;5034523;28;20026;-73
2023/10/10 15:26:41;;;;;;;1999.90;999.90;;;;;;;;;;5032770;28;20037;-71
2023/10/10 15:29:10;;;;;;;1999.90;999.90;;;;;;;;;;5034107;28;20447;-73
2023/10/10 15:31:38;;;;;;;1999.90;999.90;;;;;;;;;;5033877;28;20014;-72
2023/10/10 15:34:06;;;;;;;1999.90;999.90;;;;;;;;;;5034257;28;20022;-73
2023/10/10 15:36:33;;;;;;;1999.90;999.90;;;;;;;;;;5033683;28;20024;-73
2023/10/10 15:39:05;;;;;;;1999.90;999.90;;;;;;;;;;5033901;28;20092;-72
2023/10/10 15:41:34;;;;;;;1999.90;999.90;;;;;;;;;;5034342;28;20087;-72
2023/10/10 15:44:03;;;;;;;1999.90;999.90;;;;;;;;;;5034237;28;20488;-72
2023/10/10 15:46:31;;;;;;;1999.90;999.90;;;;;;;;;;5034097;28;20032;-68
2023/10/10 15:48:58;;;;;;;1999.90;999.90;;;;;;;;;;5035096;28;20053;-70
2023/10/10 15:51:25;;;;;;;1999.90;999.90;;;;;;;;;;5035420;28;20025;-69
2023/10/10 15:53:51;;;;;;;1999.90;999.90;;;;;;;;;;5032264;28;20037;-79
2023/10/10 15:56:18;;;;;;;1999.90;999.90;;;;;;;;;;5033472;28;20060;-73
2023/10/10 15:58:49;;;;;;;1999.90;999.90;;;;;;;;;;5031755;28;20100;-71
2023/10/10 16:01:21;;;;;;;1999.90;999.90;;;;;;;;;;5033004;28;20028;-66
2023/10/10 16:03:48;;;;;;;1999.90;999.90;;;;;;;;;;5035238;28;20025;-68
2023/10/10 16:06:19;;;;;;;1999.90;999.90;;;;;;;;;;5035045;28;20472;-67
2023/10/10 16:08:47;;;;;;;1999.90;999.90;;;;;;;;;;5033533;28;20061;-67
2023/10/10 16:11:13;;;;;;;1999.90;999.90;;;;;;;;;;5033423;28;20468;-68
2023/10/10 16:13:39;;;;;;;1999.90;999.90;;;;;;;;;;5034670;28;20026;-69
2023/10/10 16:16:06;;;;;;;1999.90;999.90;;;;;;;;;;5034758;28;20021;-74
2023/10/10 16:18:33;;;;;;;1999.90;999.90;;;;;;;;;;5032424;28;20095;-71
2023/10/10 16:20:59;;;;;;;1999.90;999.90;;;;;;;;;;5032664;28;20472;-68
2023/10/10 16:23:26;;;;;;;1999.90;999.90;;;;;;;;;;5033151;28;20040;-67
2023/10/10 16:25:52;;;;;;;1999.90;999.90;;;;;;;;;;5033372;28;20022;-67
2023/10/10 16:28:22;;;;;;;1999.90;999.90;;;;;;;;;;5033225;28;20123;-68
2023/10/10 16:30:52;;;;;;;1999.90;999.90;;;;;;;;;;5032337;28;20044;-70
2023/10/10 16:33:20;;;;;;;1999.90;999.90;;;;;;;;;;5032155;28;20037;-75
2023/10/10 16:35:47;;;;;;;1999.90;999.90;;;;;;;;;;5033021;28;20025;-76
2023/10/10 16:38:15;;;;;;;1999.90;999.90;;;;;;;;;;5032827;28;20048;-71
2023/10/10 16:40:41;;;;;;;1999.90;999.90;;;;;;;;;;5032169;28;20104;-68
2023/10/10 16:43:07;;;;;;;1999.90;999.90;;;;;;;;;;5032563;28;20506;-76
2023/10/10 16:45:33;;;;;;;1999.90;999.90;;;;;;;;;;5032370;28;20033;-70
2023/10/10 16:48:01;;;;;;;1999.90;999.90;;;;;;;;;;5031259;28;20024;-75
2023/10/10 16:50:27;;;;;;;1999.90;999.90;;;;;;;;;;5032952;28;20025;-74
2023/10/10 16:52:53;;;;;;;1999.90;999.90;;;;;;;;;;5032491;28;20104;-73
2023/10/10 16:55:19;;;;;;;1999.90;999.90;;;;;;;;;;5032883;28;20030;-83
2023/10/10 16:57:47;;;;;;;1999.90;999.90;;;;;;;;;;5032209;28;20056;-78
2023/10/10 17:00:14;;;;;;;1999.90;999.90;;;;;;;;;;5032180;28;20022;-74
2023/10/10 17:02:41;;;;;;;1999.90;999.90;;;;;;;;;;5032342;28;20033;-72
2023/10/10 17:05:11;;;;;;;1999.90;999.90;;;;;;;;;;5033213;28;20033;-77
2023/10/10 17:07:39;;;;;;;1999.90;999.90;;;;;;;;;;5032046;28;20056;-70
2023/10/10 17:10:07;;;;;;;1999.90;999.90;;;;;;;;;;5033853;28;20030;-78
2023/10/10 17:12:33;;;;;;;1999.90;999.90;;;;;;;;;;5032073;28;20080;-76
2023/10/10 17:14:59;;;;;;;1999.90;999.90;;;;;;;;;;5032250;28;20029;-76
2023/10/10 17:17:25;;;;;;;1999.90;999.90;;;;;;;;;;5031997;28;20473;-76
2023/10/10 17:19:52;;;;;;;1999.90;999.90;;;;;;;;;;5032621;28;20526;-74
2023/10/10 17:22:18;;;;;;;1999.90;999.90;;;;;;;;;;5031981;28;20108;-69
2023/10/10 17:24:44;;;;;;;1999.90;999.90;;;;;;;;;;5031976;28;20104;-73
2023/10/10 17:27:10;;;;;;;1999.90;999.90;;;;;;;;;;5015742;28;20432;-72
2023/10/10 17:29:36;;;;;;;1999.90;999.90;;;;;;;;;;5029557;28;20130;-76
2023/10/10 17:32:05;;;;;;;1999.90;999.90;;;;;;;;;;5034115;28;20053;-72
2023/10/10 17:34:33;;;;;;;1999.90;999.90;;;;;;;;;;5030624;28;20021;-72
2023/10/10 17:36:59;;;;;;;1999.90;999.90;;;;;;;;;;5028530;28;20029;-73
2023/10/10 17:39:25;;;;;;;1999.90;999.90;;;;;;;;;;5030351;28;20486;-75
2023/10/10 17:41:51;;;;;;;1999.90;999.90;;;;;;;;;;5024116;28;20468;-73
2023/10/10 17:44:18;;;;;;;1999.90;999.90;;;;;;;;;;5021182;28;20080;-79
2023/10/10 17:46:46;;;;;;;1999.90;999.90;;;;;;;;;;5019096;28;20025;-78
2023/10/10 17:49:13;;;;;;;1999.90;999.90;;;;;;;;;;5020353;28;20026;-75
2023/10/10 17:54:15;;;;;;;1999.90;999.90;;;;;;;;;;5015221;28;20053;-76
2023/10/10 17:56:44;;;;;;;1999.90;999.90;;;;;;;;;;5010913;28;20116;-73
2023/10/10 17:59:11;;;;;;;1999.90;999.90;;;;;;;;;;5014807;28;20041;-75
2023/10/10 18:01:37;;;;;;;1999.90;999.90;;;;;;;;;;5020558;28;20017;-78
2023/10/10 18:04:04;;;;;;;1999.90;999.90;;;;;;;;;;5028087;28;20032;-75
2023/10/10 18:06:30;;;;;;;1999.90;999.90;;;;;;;;;;5029552;28;20048;-75
2023/10/10 18:09:00;;;;;;;1999.90;999.90;;;;;;;;;;5031056;28;20025;-76
2023/10/10 18:11:26;;;;;;;1999.90;999.90;;;;;;;;;;5023936;28;20030;-77
2023/10/10 18:13:53;;;;;;;1999.90;999.90;;;;;;;;;;5032118;28;20108;-75
2023/10/10 18:16:22;;;;;;;1999.90;999.90;;;;;;;;;;5031235;28;20030;-78
2023/10/10 18:18:49;;;;;;;1999.90;999.90;;;;;;;;;;5024416;28;20034;-77
2023/10/10 18:21:19;;;;;;;1999.90;999.90;;;;;;;;;;5020366;28;20110;-70
2023/10/10 18:23:46;;;;;;;1999.90;999.90;;;;;;;;;;5029849;28;20037;-79
2023/10/10 18:26:13;;;;;;;1999.90;999.90;;;;;;;;;;5029642;28;20461;-71
2023/10/10 18:28:39;;;;;;;1999.90;999.90;;;;;;;;;;5029998;28;20042;-72
2023/10/10 18:31:11;;;;;;;1999.90;999.90;;;;;;;;;;5030226;28;20031;-71
2023/10/10 18:33:38;;;;;;;1999.90;999.90;;;;;;;;;;5030550;28;20032;-71
2023/10/10 18:36:08;;;;;;;1999.90;999.90;;;;;;;;;;5029449;28;20021;-73
2023/10/10 18:38:34;;;;;;;1999.90;999.90;;;;;;;;;;5029754;28;20034;-74
2023/10/10 18:41:00;;;;;;;1999.90;999.90;;;;;;;;;;5029397;28;20172;-71
2023/10/10 18:43:26;;;;;;;1999.90;999.90;;;;;;;;;;5029949;28;20030;-72
2023/10/10 18:45:53;;;;;;;1999.90;999.90;;;;;;;;;;5021831;28;20030;-69
2023/10/10 18:48:19;;;;;;;1999.90;999.90;;;;;;;;;;5010038;28;20073;-70
2023/10/10 18:50:45;;;;;;;1999.90;999.90;;;;;;;;;;5012844;28;20026;-71
2023/10/10 18:53:13;;;;;;;1999.90;999.90;;;;;;;;;;5027919;28;20026;-72
2023/10/10 18:55:39;;;;;;;1999.90;999.90;;;;;;;;;;5028832;28;20022;-71
2023/10/10 18:58:06;;;;;;;1999.90;999.90;;;;;;;;;;5029103;28;20540;-70
2023/10/10 19:00:36;;;;;;;1999.90;999.90;;;;;;;;;;5029199;28;20034;-70
2023/10/10 19:03:06;;;;;;;1999.90;999.90;;;;;;;;;;5029954;28;20532;-70
2023/10/10 19:05:32;;;;;;;1999.90;999.90;;;;;;;;;;5029241;28;20025;-69
2023/10/10 19:07:59;;;;;;;1999.90;999.90;;;;;;;;;;5029073;28;20109;-70
2023/10/10 19:10:26;;;;;;;1999.90;999.90;;;;;;;;;;5029399;28;20171;-71
2023/10/10 19:12:52;;;;;;;1999.90;999.90;;;;;;;;;;5029485;28;20370;-72
2023/10/10 19:15:19;;;;;;;1999.90;999.90;;;;;;;;;;5029109;28;20025;-71
2023/10/10 19:17:49;;;;;;;1999.90;999.90;;;;;;;;;;5029327;28;20884;-66
2023/10/10 19:20:20;;;;;;;1999.90;999.90;;;;;;;;;;5028744;28;20037;-74
2023/10/10 19:22:46;;;;;;;1999.90;999.90;;;;;;;;;;5028245;28;20022;-72
2023/10/10 19:25:16;;;;;;;1999.90;999.90;;;;;;;;;;5027811;28;20036;-75
2023/10/10 19:27:43;;;;;;;1999.90;999.90;;;;;;;;;;5023838;28;20037;-73
2023/10/10 19:30:16;;;;;;;1999.90;999.90;;;;;;;;;;5008884;28;20115;-72
2023/10/10 19:32:43;;;;;;;1999.90;999.90;;;;;;;;;;5008532;28;20422;-70
2023/10/10 19:35:10;;;;;;;1999.90;999.90;;;;;;;;;;5009370;28;20030;-73
2023/10/10 19:37:42;;;;;;;1999.90;999.90;;;;;;;;;;5009340;28;20030;-73
2023/10/10 19:40:09;;;;;;;1999.90;999.90;;;;;;;;;;5008692;28;20034;-72
2023/10/10 19:42:39;;;;;;;1999.90;999.90;;;;;;;;;;5008767;28;20466;-71
2023/10/10 19:45:06;;;;;;;1999.90;999.90;;;;;;;;;;5008929;28;20049;-73
2023/10/10 19:47:32;;;;;;;1999.90;999.90;;;;;;;;;;5011374;28;20014;-72
2023/10/10 19:49:58;;;;;;;1999.90;999.90;;;;;;;;;;5026190;28;20092;-72
2023/10/10 19:52:25;;;;;;;1999.90;999.90;;;;;;;;;;5029122;28;20033;-72
2023/10/10 19:54:51;;;;;;;1999.90;999.90;;;;;;;;;;5029017;28;20041;-72
2023/10/10 19:57:18;;;;;;;1999.90;999.90;;;;;;;;;;5028471;28;20032;-72
2023/10/10 19:59:44;;;;;;;1999.90;999.90;;;;;;;;;;5028328;28;20036;-73
2023/10/10 20:02:14;;;;;;;1999.90;999.90;;;;;;;;;;5029166;28;20029;-71
2023/10/10 20:04:40;;;;;;;1999.90;999.90;;;;;;;;;;5029582;28;20558;-72
2023/10/10 20:07:07;;;;;;;1999.90;999.90;;;;;;;;;;5032598;28;20036;-72
2023/10/10 20:09:35;;;;;;;1999.90;999.90;;;;;;;;;;5030878;28;20495;-71
2023/10/10 20:12:04;;;;;;;1999.90;999.90;;;;;;;;;;5032068;28;20033;-73
2023/10/10 20:14:30;;;;;;;1999.90;999.90;;;;;;;;;;5032727;28;20071;-73
2023/10/10 20:16:56;;;;;;;1999.90;999.90;;;;;;;;;;5031335;28;20087;-72
2023/10/10 20:19:23;;;;;;;1999.90;999.90;;;;;;;;;;5032222;28;20489;-73
2023/10/10 20:21:49;;;;;;;1999.90;999.90;;;;;;;;;;5029849;28;20416;-73
2023/10/10 20:24:15;;;;;;;1999.90;999.90;;;;;;;;;;5032719;28;20029;-73
2023/10/10 20:26:41;;;;;;;1999.90;999.90;;;;;;;;;;5033311;28;20057;-72
2023/10/10 20:29:09;;;;;;;1999.90;999.90;;;;;;;;;;5032983;28;20037;-73
2023/10/10 20:31:35;;;;;;;1999.90;999.90;;;;;;;;;;5033067;28;20018;-75
2023/10/10 20:34:01;;;;;;;1999.90;999.90;;;;;;;;;;5032988;28;20040;-75
2023/10/10 20:36:27;;;;;;;1999.90;999.90;;;;;;;;;;5032853;28;20386;-73
2023/10/10 20:38:53;;;;;;;1999.90;999.90;;;;;;;;;;5033021;28;20111;-71
2023/10/10 20:41:21;;;;;;;1999.90;999.90;;;;;;;;;;5032819;28;20057;-72
2023/10/10 20:43:47;;;;;;;1999.90;999.90;;;;;;;;;;5031550;28;20500;-69
2023/10/10 20:46:17;;;;;;;1999.90;999.90;;;;;;;;;;5032728;28;20021;-71
2023/10/10 20:48:45;;;;;;;1999.90;999.90;;;;;;;;;;5031692;28;20492;-70
2023/10/10 20:51:14;;;;;;;1999.90;999.90;;;;;;;;;;5033649;28;20025;-70
2023/10/10 20:53:41;;;;;;;1999.90;999.90;;;;;;;;;;5031886;28;20384;-69
2023/10/10 20:56:08;;;;;;;1999.90;999.90;;;;;;;;;;5036961;28;20036;-71
2023/10/10 20:58:36;;;;;;;1999.90;999.90;;;;;;;;;;5034517;28;20060;-70
2023/10/10 21:01:02;;;;;;;1999.90;999.90;;;;;;;;;;5032714;28;20091;-69
2023/10/10 21:03:29;;;;;;;1999.90;999.90;;;;;;;;;;5034360;28;20057;-69
2023/10/10 21:05:55;;;;;;;1999.90;999.90;;;;;;;;;;5032117;28;20041;-71
2023/10/10 21:08:21;;;;;;;1999.90;999.90;;;;;;;;;;5032138;28;20119;-72
2023/10/10 21:10:50;;;;;;;1999.90;999.90;;;;;;;;;;5032262;28;20021;-70
2023/10/10 21:13:16;;;;;;;1999.90;999.90;;;;;;;;;;5025896;28;20026;-71
2023/10/10 21:15:42;;;;;;;1999.90;999.90;;;;;;;;;;5021298;28;20026;-69
2023/10/10 21:18:08;;;;;;;1999.90;999.90;;;;;;;;;;5022557;28;20030;-67
2023/10/10 21:20:35;;;;;;;1999.90;999.90;;;;;;;;;;5020706;28;20503;-71
2023/10/10 21:23:04;;;;;;;1999.90;999.90;;;;;;;;;;5021437;28;20290;-70
2023/10/10 21:25:33;;;;;;;1999.90;999.90;;;;;;;;;;5023150;28;20041;-70